Time;durP1;ratioP1;P1;durP2;ratioP2;P2;SDS_P1;SDS_P2;PMS_P1;PMS_P2;Temp;Humidity;BMP_temperature;BMP_pressure;BME280_temperature;BME280_humidity;BME280_pressure;Samples;Min_cycle;Max_cycle;Signal;HPM_P1;HPM_P2
2022/11/09 00:00:51;;;;;;;;;;;;;;;15.93;78.61;99684.78;5074225;28;1955;-62
2022/11/09 00:03:16;;;;;;;;;;;;;;;15.94;78.67;99685.59;5074350;28;923;-62
2022/11/09 00:05:41;;;;;;;;;;;;;;;15.93;78.85;99681.22;5074128;28;789;-62
2022/11/09 00:08:07;;;;;;;;;;;;;;;15.94;78.23;99688.38;5074002;28;888;-62
2022/11/09 00:10:33;;;;;;;;;;;;;;;15.93;78.54;99698.59;5074061;28;1195;-62
2022/11/09 00:12:58;;;;;;;;;;;;;;;15.93;78.81;99673.75;5074137;28;904;-62
2022/11/09 00:15:23;;;;;;;;;;;;;;;15.94;78.95;99686.41;5074029;28;943;-62
2022/11/09 00:17:49;;;;;;;;;;;;;;;15.93;78.33;99675.69;5073948;28;895;-62
2022/11/09 00:20:14;;;;;;;;;;;;;;;15.95;78.55;99670.66;5073740;28;1973;-62
2022/11/09 00:22:39;;;;;;;;;;;;;;;15.94;78.36;99672.63;5073849;28;995;-62
2022/11/09 00:25:05;;;;;;;;;;;;;;;15.94;78.61;99677.31;5073896;28;760;-62
2022/11/09 00:27:30;;;;;;;;;;;;;;;15.94;78.61;99671.81;5073522;28;958;-62
2022/11/09 00:29:55;;;;;;;;;;;;;;;15.93;78.84;99671.00;5073555;28;1267;-62
2022/11/09 00:32:20;;;;;;;;;;;;;;;15.93;78.59;99665.47;5073748;28;792;-62
2022/11/09 00:34:45;;;;;;;;;;;;;;;15.93;78.32;99671.00;5073606;28;889;-62
2022/11/09 00:37:10;;;;;;;;;;;;;;;15.93;78.59;99671.00;5089081;28;1055;-62
2022/11/09 00:39:35;;;;;;;;;;;;;;;15.93;78.66;99671.00;5073398;28;1894;-62
2022/11/09 00:42:01;;;;;;;;;;;;;;;15.94;78.85;99666.28;5073604;28;893;-62
2022/11/09 00:44:26;;;;;;;;;;;;;;;15.94;78.57;99660.75;5072811;28;754;-62
2022/11/09 00:46:51;;;;;;;;;;;;;;;15.94;78.85;99655.25;5073207;28;939;-62
2022/11/09 00:49:16;;;;;;;;;;;;;;;15.94;78.58;99661.56;5073393;28;1181;-62
2022/11/09 00:51:41;;;;;;;;;;;;;;;15.94;78.38;99669.03;5073450;28;901;-62
2022/11/09 00:54:07;;;;;;;;;;;;;;;15.94;78.40;99677.31;5073376;28;1042;-62
2022/11/09 00:56:32;;;;;;;;;;;;;;;15.94;78.82;99667.09;5073058;28;913;-62
2022/11/09 00:58:57;;;;;;;;;;;;;;;15.94;78.83;99661.56;5073364;28;1188;-62
2022/11/09 01:01:22;;;;;;;;;;;;;;;15.94;78.55;99669.84;5073336;28;1943;-62
2022/11/09 01:03:47;;;;;;;;;;;;;;;15.93;78.80;99665.47;5073209;28;831;-62
2022/11/09 01:06:16;;;;;;;;;;;;;;;15.95;78.63;99656.88;5073164;28;995;-62
2022/11/09 01:08:42;;;;;;;;;;;;;;;15.93;78.88;99668.22;5073206;28;900;-62
2022/11/09 01:11:08;;;;;;;;;;;;;;;15.94;78.31;99666.28;5073379;28;1446;-62
2022/11/09 01:13:34;;;;;;;;;;;;;;;15.93;78.41;99671.00;5073217;28;987;-62
2022/11/09 01:15:59;;;;;;;;;;;;;;;15.94;78.52;99671.81;5073072;28;789;-62
2022/11/09 01:18:24;;;;;;;;;;;;;;;15.94;78.67;99682.84;5073107;28;976;-62
2022/11/09 01:20:49;;;;;;;;;;;;;;;15.94;78.94;99672.63;5073008;28;1957;-62
2022/11/09 01:23:15;;;;;;;;;;;;;;;15.93;78.61;99673.75;5073060;28;834;-62
2022/11/09 01:25:41;;;;;;;;;;;;;;;15.94;78.54;99675.38;5073075;28;959;-62
2022/11/09 01:28:06;;;;;;;;;;;;;;;15.93;78.75;99676.50;5072801;28;829;-62
2022/11/09 01:30:33;;;;;;;;;;;;;;;15.93;78.50;99671.00;5072887;28;1336;-62
2022/11/09 01:32:58;;;;;;;;;;;;;;;15.93;78.56;99671.00;5073089;28;883;-62
2022/11/09 01:35:23;;;;;;;;;;;;;;;15.94;79.26;99677.31;5072985;28;995;-62
2022/11/09 01:37:48;;;;;;;;;;;;;;;15.93;78.41;99676.50;5072691;28;841;-62
2022/11/09 01:40:13;;;;;;;;;;;;;;;15.93;78.63;99676.50;5072789;28;1890;-62
2022/11/09 01:42:38;;;;;;;;;;;;;;;15.94;78.65;99678.13;5072901;28;764;-62
2022/11/09 01:45:16;;;;;;;;;;;;;;;15.94;78.84;99680.91;5072900;28;975;-62
2022/11/09 01:47:41;;;;;;;;;;;;;;;15.93;78.78;99673.75;5072536;28;979;-62
2022/11/09 01:50:08;;;;;;;;;;;;;;;15.94;78.71;99693.88;5072805;28;1189;-62
2022/11/09 01:52:35;;;;;;;;;;;;;;;15.94;78.65;99683.66;5072835;28;967;-62
2022/11/09 01:55:02;;;;;;;;;;;;;;;15.94;78.82;99678.13;5073821;28;891;-62
2022/11/09 01:57:30;;;;;;;;;;;;;;;15.94;78.92;99675.38;5076476;28;991;-62
2022/11/09 01:59:58;;;;;;;;;;;;;;;15.94;78.47;99671.81;5076585;28;1890;-62
2022/11/09 02:02:24;;;;;;;;;;;;;;;15.94;78.52;99669.84;5076585;28;987;-62
2022/11/09 02:04:53;;;;;;;;;;;;;;;15.94;78.97;99669.03;5076472;28;999;-62
2022/11/09 02:07:19;;;;;;;;;;;;;;;15.94;78.68;99669.84;5076259;28;1003;-62
2022/11/09 02:09:48;;;;;;;;;;;;;;;15.95;78.47;99670.66;5076600;28;1180;-62
2022/11/09 02:12:14;;;;;;;;;;;;;;;15.94;78.91;99667.09;5076409;28;987;-62
2022/11/09 02:14:40;;;;;;;;;;;;;;;15.94;78.91;99656.06;5076360;28;1046;-62
2022/11/09 02:17:06;;;;;;;;;;;;;;;15.94;79.29;99650.53;5075943;28;894;-62
2022/11/09 02:19:31;;;;;;;;;;;;;;;15.93;78.70;99653.63;5076091;28;1894;-62
2022/11/09 02:21:56;;;;;;;;;;;;;;;15.94;78.69;99653.28;5076208;28;884;-62
2022/11/09 02:24:22;;;;;;;;;;;;;;;15.93;78.57;99659.94;5076377;28;983;-62
2022/11/09 02:26:48;;;;;;;;;;;;;;;15.93;78.79;99673.75;5075800;28;979;-62
2022/11/09 02:29:16;;;;;;;;;;;;;;;15.93;78.63;99671.00;5075910;28;1353;-62
2022/11/09 02:31:47;;;;;;;;;;;;;;;15.94;78.93;99674.56;5076040;28;826;-62
2022/11/09 02:34:16;;;;;;;;;;;;;;;15.94;78.60;99675.38;5075979;28;920;-62
2022/11/09 02:36:42;;;;;;;;;;;;;;;15.93;78.57;99670.19;5075635;28;1803;-62
2022/11/09 02:39:08;;;;;;;;;;;;;;;15.93;78.52;99684.78;5075780;28;1901;-62
2022/11/09 02:41:35;;;;;;;;;;;;;;;15.93;78.93;99676.50;5076025;28;1736;-62
2022/11/09 02:44:01;;;;;;;;;;;;;;;15.94;78.53;99660.75;5075787;28;1069;-62
2022/11/09 02:46:33;;;;;;;;;;;;;;;15.94;79.16;99677.31;5075494;28;793;-62
2022/11/09 02:48:59;;;;;;;;;;;;;;;15.94;78.63;99678.13;5075824;28;1281;-62
2022/11/09 02:51:24;;;;;;;;;;;;;;;15.93;78.91;99665.47;5075954;28;813;-62
2022/11/09 02:53:49;;;;;;;;;;;;;;;15.95;78.81;99671.47;5075649;28;1039;-62
2022/11/09 02:56:14;;;;;;;;;;;;;;;15.95;78.96;99662.38;5075463;28;1003;-62
2022/11/09 02:58:40;;;;;;;;;;;;;;;15.95;78.50;99648.59;5075683;28;800;-62
2022/11/09 03:01:05;;;;;;;;;;;;;;;15.94;78.76;99660.75;5075311;28;1897;-62
2022/11/09 03:03:30;;;;;;;;;;;;;;;15.94;78.83;99655.25;5075463;28;833;-62
2022/11/09 03:05:55;;;;;;;;;;;;;;;15.93;78.40;99665.47;5074899;28;991;-62
2022/11/09 03:08:21;;;;;;;;;;;;;;;15.94;78.56;99677.31;5074940;28;785;-62
2022/11/09 03:10:46;;;;;;;;;;;;;;;15.94;78.50;99677.31;5075277;28;1176;-62
2022/11/09 03:13:11;;;;;;;;;;;;;;;15.94;78.60;99680.91;5075248;28;840;-62
2022/11/09 03:15:37;;;;;;;;;;;;;;;15.95;78.78;99684.47;5075193;28;888;-62
2022/11/09 03:18:02;;;;;;;;;;;;;;;15.94;78.77;99667.09;5073593;28;925;-62
2022/11/09 03:20:27;;;;;;;;;;;;;;;15.94;78.41;99671.81;5075067;28;1893;-62
2022/11/09 03:22:56;;;;;;;;;;;;;;;15.94;78.36;99666.28;5075090;28;1027;-62
2022/11/09 03:25:21;;;;;;;;;;;;;;;15.94;78.72;99655.25;5075074;28;1058;-62
2022/11/09 03:27:46;;;;;;;;;;;;;;;15.95;79.03;99656.88;5074798;28;983;-62
2022/11/09 03:30:11;;;;;;;;;;;;;;;15.94;79.05;99650.53;5074694;28;1312;-62
2022/11/09 03:32:36;;;;;;;;;;;;;;;15.94;78.92;99645.00;5074481;28;926;-62
2022/11/09 03:35:01;;;;;;;;;;;;;;;15.94;78.69;99639.50;5074872;28;805;-62
2022/11/09 03:37:27;;;;;;;;;;;;;;;15.94;78.75;99639.50;5074535;28;979;-62
2022/11/09 03:39:52;;;;;;;;;;;;;;;15.94;78.55;99653.28;5074353;28;1902;-62
2022/11/09 03:42:17;;;;;;;;;;;;;;;15.94;78.98;99645.00;5073622;28;960;-62
2022/11/09 03:44:42;;;;;;;;;;;;;;;15.95;78.53;99651.34;5074668;28;946;-62
2022/11/09 03:47:07;;;;;;;;;;;;;;;15.95;78.66;99648.59;5074388;28;971;-62
2022/11/09 03:49:32;;;;;;;;;;;;;;;15.94;78.54;99645.00;5074601;28;1296;-62
2022/11/09 03:51:58;;;;;;;;;;;;;;;15.95;78.83;99651.34;5074504;28;972;-62
2022/11/09 03:54:23;;;;;;;;;;;;;;;15.94;78.58;99653.28;5074440;28;986;-62
2022/11/09 03:56:48;;;;;;;;;;;;;;;15.95;78.72;99651.34;5074267;28;787;-62
2022/11/09 03:59:13;;;;;;;;;;;;;;;15.96;78.61;99658.47;5074235;28;1971;-62
2022/11/09 04:01:38;;;;;;;;;;;;;;;15.94;78.78;99649.72;5074472;28;793;-62
2022/11/09 04:04:03;;;;;;;;;;;;;;;15.95;78.92;99656.88;5074309;28;801;-62
2022/11/09 04:06:29;;;;;;;;;;;;;;;15.94;78.63;99656.06;5074074;28;926;-62
2022/11/09 04:08:54;;;;;;;;;;;;;;;15.94;78.76;99638.69;5074078;28;1199;-62
2022/11/09 04:11:19;;;;;;;;;;;;;;;15.94;78.74;99647.78;5074076;28;937;-62
2022/11/09 04:13:46;;;;;;;;;;;;;;;15.94;78.95;99660.75;5074184;28;801;-62
2022/11/09 04:16:11;;;;;;;;;;;;;;;15.94;78.64;99661.56;5073845;28;820;-62
2022/11/09 04:18:36;;;;;;;;;;;;;;;15.94;79.20;99650.53;5073956;28;972;-62
2022/11/09 04:21:01;;;;;;;;;;;;;;;15.94;78.43;99661.56;5073892;28;1894;-62
2022/11/09 04:23:27;;;;;;;;;;;;;;;15.94;78.94;99653.28;5073937;28;859;-62
2022/11/09 04:25:52;;;;;;;;;;;;;;;15.94;78.82;99650.53;5073681;28;896;-62
2022/11/09 04:28:17;;;;;;;;;;;;;;;15.94;78.61;99650.53;5073791;28;885;-62
2022/11/09 04:30:43;;;;;;;;;;;;;;;15.94;78.54;99647.78;5088597;22;2100;-62
2022/11/09 04:33:08;;;;;;;;;;;;;;;15.94;78.52;99660.75;5073699;28;1025;-62
2022/11/09 04:35:34;;;;;;;;;;;;;;;15.93;78.52;99659.94;5073662;28;966;-61
2022/11/09 04:38:00;;;;;;;;;;;;;;;15.94;79.04;99666.28;5073383;28;793;-62
2022/11/09 04:40:27;;;;;;;;;;;;;;;15.94;79.07;99658.00;5073447;28;1965;-62
2022/11/09 04:42:52;;;;;;;;;;;;;;;15.95;79.00;99673.41;5073550;28;785;-62
2022/11/09 04:45:17;;;;;;;;;;;;;;;15.96;78.85;99683.31;5073398;28;987;-62
2022/11/09 04:47:43;;;;;;;;;;;;;;;15.94;78.63;99667.09;5073230;28;833;-62
2022/11/09 04:50:08;;;;;;;;;;;;;;;15.95;78.71;99678.94;5073312;28;1204;-62
2022/11/09 04:52:33;;;;;;;;;;;;;;;15.95;79.00;99676.19;5073473;28;843;-62
2022/11/09 04:54:58;;;;;;;;;;;;;;;15.93;78.76;99676.50;5073355;28;768;-61
2022/11/09 04:57:23;;;;;;;;;;;;;;;15.93;78.89;99676.50;5073076;28;931;-61
2022/11/09 04:59:49;;;;;;;;;;;;;;;15.93;78.61;99676.50;5073223;28;1947;-62
2022/11/09 05:02:14;;;;;;;;;;;;;;;15.94;79.15;99671.81;5073208;28;1047;-61
2022/11/09 05:04:39;;;;;;;;;;;;;;;15.94;78.88;99683.66;5073231;28;999;-62
2022/11/09 05:07:04;;;;;;;;;;;;;;;15.93;78.98;99673.75;5073008;28;991;-62
2022/11/09 05:09:29;;;;;;;;;;;;;;;15.94;78.58;99680.09;5073134;28;1192;-61
2022/11/09 05:11:54;;;;;;;;;;;;;;;15.93;79.14;99665.47;5073113;28;1031;-61
2022/11/09 05:14:19;;;;;;;;;;;;;;;15.94;78.58;99678.13;5073332;28;711;-62
2022/11/09 05:16:45;;;;;;;;;;;;;;;15.93;79.13;99671.00;5072830;28;916;-61
2022/11/09 05:19:10;;;;;;;;;;;;;;;15.94;78.74;99669.84;5072673;28;1276;-63
2022/11/09 05:21:35;;;;;;;;;;;;;;;15.95;78.72;99670.66;5073180;28;1898;-60
2022/11/09 05:24:01;;;;;;;;;;;;;;;15.95;78.95;99678.94;5073078;28;852;-62
2022/11/09 05:26:28;;;;;;;;;;;;;;;15.95;79.13;99670.66;5073202;28;887;-62
2022/11/09 05:28:53;;;;;;;;;;;;;;;15.95;78.79;99681.69;5073210;28;796;-61
2022/11/09 05:31:18;;;;;;;;;;;;;;;15.95;78.70;99674.22;5076282;28;1295;-62
2022/11/09 05:33:44;;;;;;;;;;;;;;;15.95;78.99;99674.22;5077388;28;872;-61
2022/11/09 05:36:09;;;;;;;;;;;;;;;15.95;79.16;99678.94;5076913;28;983;-61
2022/11/09 05:38:34;;;;;;;;;;;;;;;15.95;78.77;99689.97;5077130;28;1175;-62
2022/11/09 05:40:59;;;;;;;;;;;;;;;15.95;78.81;99681.69;5076995;28;1894;-62
2022/11/09 05:43:24;;;;;;;;;;;;;;;15.95;78.82;99685.28;5076995;28;1022;-63
2022/11/09 05:45:49;;;;;;;;;;;;;;;15.94;79.17;99686.41;5076798;28;882;-62
2022/11/09 05:48:15;;;;;;;;;;;;;;;15.96;78.74;99694.38;5076940;28;871;-62
2022/11/09 05:50:41;;;;;;;;;;;;;;;15.96;78.95;99697.94;5076870;28;1334;-62
2022/11/09 05:53:06;;;;;;;;;;;;;;;15.96;78.85;99695.19;5076773;28;816;-62
2022/11/09 05:55:32;;;;;;;;;;;;;;;15.97;79.09;99687.69;5076810;28;1019;-61
2022/11/09 05:57:57;;;;;;;;;;;;;;;15.98;79.00;99692.09;5076375;28;983;-62
2022/11/09 06:00:22;;;;;;;;;;;;;;;15.98;78.83;99681.03;5076364;28;1897;-61
2022/11/09 06:02:47;;;;;;;;;;;;;;;15.98;79.28;99675.53;5076509;28;883;-61
2022/11/09 06:05:12;;;;;;;;;;;;;;;15.98;79.07;99675.53;5076486;28;880;-61
2022/11/09 06:07:38;;;;;;;;;;;;;;;15.98;79.39;99675.53;5075827;28;1155;-62
2022/11/09 06:10:03;;;;;;;;;;;;;;;15.98;78.65;99667.25;5076383;28;1298;-61
2022/11/09 06:12:30;;;;;;;;;;;;;;;15.97;78.91;99658.16;5076308;28;772;-61
2022/11/09 06:14:55;;;;;;;;;;;;;;;15.98;79.64;99658.97;5076355;28;983;-61
2022/11/09 06:17:20;;;;;;;;;;;;;;;15.99;79.06;99660.59;5076052;28;856;-62
2022/11/09 06:19:45;;;;;;;;;;;;;;;15.99;79.03;99660.59;5076115;28;1976;-62
2022/11/09 06:22:11;;;;;;;;;;;;;;;15.99;79.26;99661.34;5076220;28;844;-63
2022/11/09 06:24:36;;;;;;;;;;;;;;;15.99;78.86;99663.34;5076154;28;751;-64
2022/11/09 06:27:01;;;;;;;;;;;;;;;16.00;79.52;99667.69;5076039;28;1183;-62
2022/11/09 06:29:26;;;;;;;;;;;;;;;16.00;79.14;99651.13;5075878;28;1224;-63
2022/11/09 06:31:52;;;;;;;;;;;;;;;16.00;79.34;99660.22;5076083;28;1021;-62
2022/11/09 06:34:17;;;;;;;;;;;;;;;16.00;79.11;99662.97;5076090;28;820;-63
2022/11/09 06:36:43;;;;;;;;;;;;;;;16.00;78.96;99668.50;5070795;28;1189;-62
2022/11/09 06:39:08;;;;;;;;;;;;;;;16.02;79.11;99673.69;5055860;28;1299;-62
2022/11/09 06:41:33;;;;;;;;;;;;;;;16.01;79.23;99678.41;5054910;28;1960;-63
2022/11/09 06:43:58;;;;;;;;;;;;;;;16.01;79.63;99672.88;5065892;28;1292;-63
2022/11/09 06:46:24;;;;;;;;;;;;;;;16.01;79.51;99689.44;5064956;28;1351;-63
2022/11/09 06:48:49;;;;;;;;;;;;;;;16.02;79.24;99691.06;5065389;28;1410;-63
2022/11/09 06:51:14;;;;;;;;;;;;;;;16.01;79.05;99694.97;5075594;28;1202;-62
2022/11/09 06:53:40;;;;;;;;;;;;;;;16.03;79.44;99694.63;5075552;28;1038;-63
2022/11/09 06:56:05;;;;;;;;;;;;;;;16.03;79.22;99697.41;5075355;28;789;-63
2022/11/09 06:58:31;;;;;;;;;;;;;;;16.02;79.19;99702.09;5075395;28;1109;-62
2022/11/09 07:00:56;;;;;;;;;;;;;;;16.03;79.06;99717.53;5075387;28;1890;-63
2022/11/09 07:03:21;;;;;;;;;;;;;;;16.03;78.94;99700.16;5075385;28;801;-63
2022/11/09 07:05:47;;;;;;;;;;;;;;;16.03;79.01;99702.91;5075251;28;1042;-62
2022/11/09 07:08:13;;;;;;;;;;;;;;;16.03;79.34;99706.47;5075280;28;829;-63
2022/11/09 07:10:38;;;;;;;;;;;;;;;16.03;79.37;99709.25;5075174;28;1189;-63
2022/11/09 07:13:04;;;;;;;;;;;;;;;16.03;79.65;99698.19;5075231;28;825;-63
2022/11/09 07:15:29;;;;;;;;;;;;;;;16.03;79.22;99709.25;5075324;28;887;-62
2022/11/09 07:17:58;;;;;;;;;;;;;;;16.04;79.35;99699.00;5075107;28;818;-62
2022/11/09 07:20:24;;;;;;;;;;;;;;;16.04;79.78;99705.34;5074954;28;1893;-63
2022/11/09 07:22:49;;;;;;;;;;;;;;;16.04;79.09;99707.28;5075000;28;955;-62
2022/11/09 07:25:14;;;;;;;;;;;;;;;16.04;79.26;99721.91;5074981;28;856;-63
2022/11/09 07:27:39;;;;;;;;;;;;;;;16.05;79.72;99709.72;5074744;28;984;-63
2022/11/09 07:30:05;;;;;;;;;;;;;;;16.04;79.46;99702.59;5074745;28;1205;-63
2022/11/09 07:32:34;;;;;;;;;;;;;;;16.04;79.46;99699.81;5074872;28;971;-63
2022/11/09 07:34:59;;;;;;;;;;;;;;;16.05;79.66;99712.47;5074832;28;870;-61
2022/11/09 07:37:24;;;;;;;;;;;;;;;16.05;79.60;99704.19;5074453;28;979;-63
2022/11/09 07:39:49;;;;;;;;;;;;;;;16.06;79.16;99714.09;5074488;28;1902;-62
2022/11/09 07:42:15;;;;;;;;;;;;;;;16.05;79.78;99706.97;5074581;28;1083;-63
2022/11/09 07:44:40;;;;;;;;;;;;;;;16.05;79.34;99715.25;5074577;28;872;-63
2022/11/09 07:47:05;;;;;;;;;;;;;;;16.07;79.91;99715.72;5074368;28;1027;-63
2022/11/09 07:49:31;;;;;;;;;;;;;;;16.05;79.58;99706.97;5074399;28;1274;-63
2022/11/09 07:51:56;;;;;;;;;;;;;;;16.07;79.66;99706.63;5074438;28;991;-62
2022/11/09 07:54:21;;;;;;;;;;;;;;;16.06;79.32;99707.78;5073911;28;809;-63
2022/11/09 07:56:46;;;;;;;;;;;;;;;16.07;79.81;99707.44;5074278;28;860;-63
2022/11/09 07:59:11;;;;;;;;;;;;;;;16.07;79.48;99709.41;5074240;28;1201;-63
2022/11/09 08:01:36;;;;;;;;;;;;;;;16.07;79.59;99707.44;5074167;28;1897;-63
2022/11/09 08:04:01;;;;;;;;;;;;;;;16.07;79.29;99709.41;5074549;28;979;-63
2022/11/09 08:06:27;;;;;;;;;;;;;;;16.07;79.37;99715.72;5074085;28;864;-63
2022/11/09 08:08:53;;;;;;;;;;;;;;;16.07;79.41;99699.16;5074159;28;940;-62
2022/11/09 08:11:18;;;;;;;;;;;;;;;16.06;79.15;99707.78;5072728;28;1252;-63
2022/11/09 08:13:43;;;;;;;;;;;;;;;16.08;79.40;99717.31;5074331;28;936;-62
2022/11/09 08:16:08;;;;;;;;;;;;;;;16.08;79.06;99713.75;5073834;28;1026;-62
2022/11/09 08:18:34;;;;;;;;;;;;;;;16.08;79.13;99710.97;5073969;28;785;-63
2022/11/09 08:21:02;;;;;;;;;;;;;;;16.08;79.19;99703.50;5073796;28;1947;-63
2022/11/09 08:23:28;;;;;;;;;;;;;;;16.08;79.60;99702.69;5073765;28;1038;-63
2022/11/09 08:25:53;;;;;;;;;;;;;;;16.09;79.65;99701.56;5073699;28;841;-63
2022/11/09 08:28:18;;;;;;;;;;;;;;;16.09;79.44;99699.59;5074068;28;931;-63
2022/11/09 08:30:44;;;;;;;;;;;;;;;16.08;78.92;99706.28;5073601;28;1256;-63
2022/11/09 08:33:10;;;;;;;;;;;;;;;16.10;79.11;99723.31;5073843;28;793;-62
2022/11/09 08:35:35;;;;;;;;;;;;;;;16.09;79.75;99715.38;5073694;28;863;-63
2022/11/09 08:38:01;;;;;;;;;;;;;;;16.10;79.27;99714.22;5073466;28;979;-63
2022/11/09 08:40:27;;;;;;;;;;;;;;;16.09;79.48;99712.59;5073535;28;1961;-63
2022/11/09 08:42:52;;;;;;;;;;;;;;;16.10;79.47;99715.03;5073634;28;910;-63
2022/11/09 08:45:17;;;;;;;;;;;;;;;16.09;79.53;99713.41;5073583;28;1023;-63
2022/11/09 08:47:43;;;;;;;;;;;;;;;15.54;79.60;99636.38;5073362;28;943;-64
2022/11/09 08:50:09;;;;;;;;;;;;;;;16.10;79.09;99716.97;5073255;28;1201;-63
2022/11/09 08:52:35;;;;;;;;;;;;;;;16.10;79.62;99725.25;5054067;28;1763;-63
2022/11/09 08:55:00;;;;;;;;;;;;;;;16.10;79.29;99723.31;5053568;28;1322;-63
2022/11/09 08:57:26;;;;;;;;;;;;;;;16.10;79.16;99715.03;5053293;28;1043;-62
2022/11/09 08:59:51;;;;;;;;;;;;;;;16.11;79.16;99737.94;5053356;28;1958;-63
2022/11/09 09:02:16;;;;;;;;;;;;;;;16.12;79.46;99729.31;5053422;28;964;-62
2022/11/09 09:04:41;;;;;;;;;;;;;;;16.11;79.68;99732.41;5052540;28;868;-62
2022/11/09 09:07:07;;;;;;;;;;;;;;;16.11;79.73;99724.13;5053473;28;736;-63
2022/11/09 09:09:33;;;;;;;;;;;;;;;16.12;79.49;99728.50;5053173;28;1210;-63
2022/11/09 09:11:58;;;;;;;;;;;;;;;16.12;79.03;99742.31;5053412;28;817;-63
2022/11/09 09:14:24;;;;;;;;;;;;;;;16.11;79.41;99738.75;5053220;28;860;-62
2022/11/09 09:16:49;;;;;;;;;;;;;;;16.12;79.03;99745.06;5052980;28;1045;-63
2022/11/09 09:19:14;;;;;;;;;;;;;;;16.12;79.19;99745.88;5053050;28;1278;-63
2022/11/09 09:21:40;;;;;;;;;;;;;;;16.13;79.16;99738.41;5052820;28;1953;-62
2022/11/09 09:24:05;;;;;;;;;;;;;;;16.12;79.58;99743.13;5053152;28;928;-63
2022/11/09 09:26:30;;;;;;;;;;;;;;;16.13;79.51;99747.50;5052989;28;952;-62
2022/11/09 09:28:55;;;;;;;;;;;;;;;16.13;79.57;99747.50;5053220;28;794;-63
2022/11/09 09:31:21;;;;;;;;;;;;;;;16.13;79.18;99755.78;5051705;28;1271;-63
2022/11/09 09:33:46;;;;;;;;;;;;;;;16.13;79.67;99764.06;5052939;28;819;-62
2022/11/09 09:36:19;;;;;;;;;;;;;;;16.13;79.16;99757.72;5052722;28;902;-63
2022/11/09 09:38:44;;;;;;;;;;;;;;;16.12;79.44;99762.44;5052948;28;793;-63
2022/11/09 09:41:16;;;;;;;;;;;;;;;16.13;79.22;99764.06;5052853;28;1909;-62
2022/11/09 09:43:43;;;;;;;;;;;;;;;16.13;79.69;99750.25;5052880;28;900;-64
2022/11/09 09:46:12;;;;;;;;;;;;;;;16.14;79.15;99753.84;5052986;28;881;-63
2022/11/09 09:48:40;;;;;;;;;;;;;;;16.13;79.55;99758.53;5051562;28;1192;-63
2022/11/09 09:51:18;;;;;;;;;;;;;;;16.07;79.07;99748.03;5052673;28;1241;-62
2022/11/09 09:53:48;;;;;;;;;;;;;;;16.13;79.66;99747.50;5052828;28;849;-63
2022/11/09 09:56:23;;;;;;;;;;;;;;;16.13;79.66;99753.03;5052799;28;991;-63
2022/11/09 09:59:01;;;;;;;;;;;;;;;16.15;79.58;99752.69;5052760;28;1051;-62
2022/11/09 10:01:33;;;;;;;;;;;;;;;16.14;79.47;99762.94;5052629;28;1902;-62
2022/11/09 10:03:59;;;;;;;;;;;;;;;16.15;79.62;99753.50;5052874;28;806;-62
2022/11/09 10:06:30;;;;;;;;;;;;;;;16.14;79.67;99754.66;5054816;28;891;-63
2022/11/09 10:09:08;;;;;;;;;;;;;;;16.14;79.32;99757.41;5053657;28;857;-63
2022/11/09 10:11:42;;;;;;;;;;;;;;;16.14;79.42;99753.84;5054605;28;1189;-64
2022/11/09 10:14:07;;;;;;;;;;;;;;;16.15;79.23;99755.47;5053462;28;873;-63
2022/11/09 10:16:54;;;;;;;;;;;;;;;16.15;79.66;99761.78;5054356;28;1032;-64
2022/11/09 10:19:34;;;;;;;;;;;;;;;16.15;79.02;99755.47;5056423;28;1201;-64
2022/11/09 10:22:06;;;;;;;;;;;;;;;16.15;79.62;99763.75;5056562;28;1011;-63
2022/11/09 10:24:34;;;;;;;;;;;;;;;16.15;79.13;99755.47;5056505;28;793;-63
2022/11/09 10:27:00;;;;;;;;;;;;;;;16.15;79.18;99745.22;5054652;28;1275;-63
2022/11/09 10:29:25;;;;;;;;;;;;;;;16.14;79.42;99754.66;5055991;28;1213;-62
2022/11/09 10:31:59;;;;;;;;;;;;;;;16.15;79.38;99749.94;5073312;22;3669;-64
2022/11/09 10:34:27;;;;;;;;;;;;;;;16.15;79.09;99747.16;5056001;28;987;-64
2022/11/09 10:36:57;;;;;;;;;;;;;;;16.14;79.02;99740.84;5075205;28;862;-64
2022/11/09 10:39:24;;;;;;;;;;;;;;;16.15;79.41;99739.69;5075950;28;1283;-64
2022/11/09 10:41:49;;;;;;;;;;;;;;;16.15;79.75;99738.88;5092673;28;1934;-64
2022/11/09 10:44:16;;;;;;;;;;;;;;;16.14;79.17;99749.13;5096129;28;884;-64
2022/11/09 10:47:01;;;;;;;;;;;;;;;16.16;79.69;99748.78;5095777;28;974;-64
2022/11/09 10:49:26;;;;;;;;;;;;;;;16.15;79.46;99749.94;5096014;28;774;-64
2022/11/09 10:51:51;;;;;;;;;;;;;;;16.15;79.05;99747.16;5095804;28;1208;-64
2022/11/09 10:54:21;;;;;;;;;;;;;;;16.15;79.18;99742.47;5095926;28;958;-64
2022/11/09 10:57:06;;;;;;;;;;;;;;;16.15;79.18;99739.69;5095674;28;960;-64
2022/11/09 10:59:34;;;;;;;;;;;;;;;16.15;79.36;99734.19;5088205;28;1961;-64
2022/11/09 11:01:59;;;;;;;;;;;;;;;16.16;79.42;99744.06;5095753;28;1168;-64
2022/11/09 11:04:25;;;;;;;;;;;;;;;16.16;79.69;99748.78;5095829;28;787;-63
2022/11/09 11:06:50;;;;;;;;;;;;;;;16.15;79.87;99739.69;5095453;28;860;-63
2022/11/09 11:09:18;;;;;;;;;;;;;;;16.15;79.28;99736.94;5095589;28;974;-64
2022/11/09 11:11:43;;;;;;;;;;;;;;;16.16;79.05;99735.00;5095434;28;1305;-64
2022/11/09 11:14:11;;;;;;;;;;;;;;;16.16;79.63;99738.53;5095388;28;895;-64
2022/11/09 11:16:37;;;;;;;;;;;;;;;16.17;79.69;99742.91;5095238;28;845;-64
2022/11/09 11:19:03;;;;;;;;;;;;;;;16.18;79.51;99739.00;5095448;28;825;-63
2022/11/09 11:21:28;;;;;;;;;;;;;;;16.18;79.45;99736.25;5095147;28;1893;-64
2022/11/09 11:24:14;;;;;;;;;;;;;;;16.19;79.63;99734.28;5095337;28;1103;-64
2022/11/09 11:26:41;;;;;;;;;;;;;;;16.18;79.31;99729.91;5094439;28;817;-64
2022/11/09 11:29:12;;;;;;;;;;;;;;;16.18;79.61;99727.97;5094224;28;813;-64
2022/11/09 11:31:38;;;;;;;;;;;;;;;16.19;79.58;99732.34;5094859;28;1306;-64
2022/11/09 11:34:07;;;;;;;;;;;;;;;16.19;79.49;99734.28;5095008;28;852;-64
2022/11/09 11:36:41;;;;;;;;;;;;;;;16.19;79.41;99729.59;5094651;28;792;-64
2022/11/09 11:39:25;;;;;;;;;;;;;;;16.20;79.47;99742.25;5094941;28;832;-64
2022/11/09 11:42:05;;;;;;;;;;;;;;;16.21;78.87;99740.28;5094746;28;1964;-64
2022/11/09 11:44:43;;;;;;;;;;;;;;;16.21;79.23;99738.34;5094779;28;1046;-65
2022/11/09 11:47:09;;;;;;;;;;;;;;;16.21;79.29;99738.34;5094827;28;1093;-65
2022/11/09 11:49:44;;;;;;;;;;;;;;;16.20;79.80;99745.00;5094697;28;864;-64
2022/11/09 11:52:24;;;;;;;;;;;;;;;16.19;79.17;99743.38;5094301;28;1293;-64
2022/11/09 11:54:49;;;;;;;;;;;;;;;16.20;79.23;99742.25;5094616;28;1041;-64
2022/11/09 11:57:35;;;;;;;;;;;;;;;16.22;79.25;99750.19;5094602;28;1062;-64
2022/11/09 12:00:14;;;;;;;;;;;;;;;16.21;79.13;99751.34;5072753;28;1902;-64
2022/11/09 12:02:39;;;;;;;;;;;;;;;16.22;79.47;99750.19;5095011;28;849;-64
2022/11/09 12:05:07;;;;;;;;;;;;;;;16.22;79.10;99752.97;5091137;28;2334;-64
2022/11/09 12:07:49;;;;;;;;;;;;;;;16.21;79.29;99738.34;5073965;28;896;-64
2022/11/09 12:10:27;;;;;;;;;;;;;;;16.22;79.53;99744.69;5084420;28;1310;-63
2022/11/09 12:12:52;;;;;;;;;;;;;;;16.21;79.75;99737.53;5094630;28;850;-64
2022/11/09 12:15:36;;;;;;;;;;;;;;;16.21;79.58;99738.34;5094476;28;836;-64
2022/11/09 12:18:10;;;;;;;;;;;;;;;16.22;79.43;99748.25;5093882;28;983;-64
2022/11/09 12:20:38;;;;;;;;;;;;;;;16.22;79.19;99748.25;5094147;28;1961;-64
2022/11/09 12:23:15;;;;;;;;;;;;;;;16.22;79.93;99739.16;5075295;28;1637;-64
2022/11/09 12:26:01;;;;;;;;;;;;;;;16.23;79.25;99746.31;5073951;28;876;-63
2022/11/09 12:28:35;;;;;;;;;;;;;;;16.22;79.58;99741.91;5073811;28;992;-64
2022/11/09 12:31:12;;;;;;;;;;;;;;;16.22;79.47;99739.97;5073657;28;1223;-63
2022/11/09 12:33:40;;;;;;;;;;;;;;;16.22;79.74;99741.91;5073653;28;983;-63
2022/11/09 12:36:12;;;;;;;;;;;;;;;16.22;79.54;99744.69;5073747;28;888;-64
2022/11/09 12:38:45;;;;;;;;;;;;;;;16.23;79.02;99743.53;5073787;28;853;-64
2022/11/09 12:41:15;;;;;;;;;;;;;;;16.23;79.39;99746.31;5073553;28;1898;-63
2022/11/09 12:43:44;;;;;;;;;;;;;;;16.22;79.47;99748.25;5073586;28;954;-63
2022/11/09 12:46:10;;;;;;;;;;;;;;;16.22;79.62;99736.41;5073427;28;1014;-63
2022/11/09 12:48:35;;;;;;;;;;;;;;;16.22;79.43;99748.25;5073453;28;808;-65
2022/11/09 12:51:03;;;;;;;;;;;;;;;16.21;79.89;99746.63;5073335;28;1234;-64
2022/11/09 12:53:31;;;;;;;;;;;;;;;16.22;79.84;99742.72;5073497;28;1050;-64
2022/11/09 12:55:58;;;;;;;;;;;;;;;16.23;79.68;99751.81;5071763;28;1178;-64
2022/11/09 12:58:28;;;;;;;;;;;;;;;16.22;79.61;99751.00;5073493;28;967;-64
2022/11/09 13:00:57;;;;;;;;;;;;;;;16.22;79.53;99751.00;5073345;28;1902;-64